createdAt,value
2023-02-12T00:02:02.390Z,98472.59
2023-02-12T00:04:30.505Z,98476.19
2023-02-12T00:06:58.596Z,98474.78
2023-02-12T00:09:26.816Z,98470.53
2023-02-12T00:11:54.907Z,98475.78
2023-02-12T00:14:22.986Z,98478.00
2023-02-12T00:16:52.437Z,98481.56
2023-02-12T00:19:20.523Z,98476.31
2023-02-12T00:21:48.630Z,98477.13
2023-02-12T00:24:16.706Z,98484.03
2023-02-12T00:26:45.142Z,98485.44
2023-02-12T00:29:13.218Z,98481.94
2023-02-12T00:31:41.395Z,98488.31
2023-02-12T00:34:12.378Z,98497.53
2023-02-12T00:36:42.378Z,98493.25
2023-02-12T00:39:11.671Z,98480.16
2023-02-12T00:41:39.729Z,98482.38
2023-02-12T00:44:07.815Z,98489.81
2023-02-12T00:46:36.291Z,98503.88
2023-02-12T00:49:04.489Z,98502.50
2023-02-12T00:51:33.906Z,98510.75
2023-02-12T00:54:02.022Z,98504.84
2023-02-12T00:56:30.072Z,98505.63
2023-02-12T00:58:58.158Z,98509.38
2023-02-12T01:01:26.871Z,98512.00
2023-02-12T01:03:54.970Z,98507.34
2023-02-12T01:06:23.086Z,98510.50
2023-02-12T01:08:53.795Z,98506.63
2023-02-12T01:11:22.305Z,98508.16
2023-02-12T01:13:50.374Z,98506.25
2023-02-12T01:16:22.443Z,98505.03
2023-02-12T01:18:55.521Z,98500.63
2023-02-12T01:21:27.339Z,98505.44
2023-02-12T01:23:58.300Z,98506.66
2023-02-12T01:26:27.058Z,98503.38
2023-02-12T01:28:57.961Z,98502.78
2023-02-12T01:31:29.828Z,98507.75
2023-02-12T01:34:00.851Z,98507.19
2023-02-12T01:36:31.258Z,98501.25
2023-02-12T01:39:02.969Z,98507.22
2023-02-12T01:41:34.533Z,98500.88
2023-02-12T01:44:13.856Z,98508.59
2023-02-12T01:46:43.028Z,98508.59
2023-02-12T01:49:17.288Z,98497.03
2023-02-12T01:51:47.410Z,98493.56
2023-02-12T01:54:20.419Z,98500.63
2023-02-12T01:56:49.699Z,98497.31
2023-02-12T01:59:19.993Z,98493.44
2023-02-12T02:01:48.372Z,98490.00
2023-02-12T02:04:23.462Z,98504.75
2023-02-12T02:06:57.804Z,98492.75
2023-02-12T02:09:29.347Z,98491.25
2023-02-12T02:12:15.615Z,98496.63
2023-02-12T02:14:45.522Z,98496.03
2023-02-12T02:17:38.771Z,98497.31
2023-02-12T02:20:59.961Z,98484.34
2023-02-12T02:23:53.150Z,98487.81
2023-02-12T02:27:06.342Z,98480.06
2023-02-12T02:30:01.011Z,98475.38
2023-02-12T02:32:33.401Z,98480.22
2023-02-12T02:35:09.506Z,98476.06
2023-02-12T02:37:44.954Z,98465.88
2023-02-12T02:40:19.190Z,98470.84
2023-02-12T02:42:55.146Z,98471.56
2023-02-12T02:45:31.561Z,98475.38
2023-02-12T02:48:05.809Z,98475.22
2023-02-12T02:51:28.149Z,98459.84
2023-02-12T02:57:52.282Z,98478.56
2023-02-12T03:00:30.405Z,98472.38
2023-02-12T03:03:08.933Z,98462.59
2023-02-12T03:05:44.661Z,98474.84
2023-02-12T03:08:20.222Z,98470.13
2023-02-12T03:10:55.107Z,98467.69
2023-02-12T03:13:28.973Z,98475.53
2023-02-12T03:16:03.960Z,98473.88
2023-02-12T03:18:37.338Z,98468.06
2023-02-12T03:21:12.405Z,98464.38
2023-02-12T03:23:48.767Z,98468.09
2023-02-12T03:26:22.537Z,98470.84
2023-02-12T03:28:55.150Z,98474.56
2023-02-12T03:31:37.233Z,98471.13
2023-02-12T03:34:16.113Z,98479.66
2023-02-12T03:36:52.505Z,98475.38
2023-02-12T03:39:31.637Z,98481.31
2023-02-12T03:42:06.580Z,98479.25
2023-02-12T03:44:53.766Z,98476.63
2023-02-12T03:47:28.934Z,98471.69
2023-02-12T03:50:11.972Z,98475.56
2023-02-12T03:52:40.332Z,98470.03
2023-02-12T03:55:09.334Z,98473.72
2023-02-12T03:57:44.009Z,98474.97
2023-02-12T04:00:17.503Z,98473.72
2023-02-12T04:02:48.948Z,98482.44
2023-02-12T04:05:24.890Z,98480.66
2023-02-12T04:07:54.949Z,98482.97
2023-02-12T04:10:30.933Z,98485.47
2023-02-12T04:13:12.179Z,98483.94
2023-02-12T04:15:58.331Z,98481.06
2023-02-12T04:18:35.106Z,98478.41
2023-02-12T04:21:15.482Z,98480.91
2023-02-12T04:23:51.325Z,98483.53
2023-02-12T04:26:27.832Z,98485.72
2023-02-12T04:29:10.849Z,98487.84
2023-02-12T04:31:46.614Z,98497.53
2023-02-12T04:34:23.295Z,98494.53
2023-02-12T04:37:00.144Z,98492.59
2023-02-12T04:39:32.624Z,98490.75
2023-02-12T04:42:01.587Z,98498.41
2023-02-12T04:44:32.745Z,98501.78
2023-02-12T04:47:01.456Z,98498.88
2023-02-12T04:49:29.777Z,98493.84
2023-02-12T04:51:59.667Z,98498.91
2023-02-12T04:54:27.866Z,98505.63
2023-02-12T04:56:56.009Z,98490.38
2023-02-12T04:59:24.213Z,98499.28
2023-02-12T05:01:52.428Z,98499.31
2023-02-12T05:04:21.097Z,98490.09
2023-02-12T05:06:49.190Z,98498.53
2023-02-12T05:09:21.569Z,98496.09
2023-02-12T05:11:50.014Z,98497.50
2023-02-12T05:14:18.080Z,98491.72
2023-02-12T05:16:46.217Z,98488.84
2023-02-12T05:19:14.292Z,98498.47
2023-02-12T05:21:43.502Z,98490.91
2023-02-12T05:24:11.776Z,98499.34
2023-02-12T05:26:41.214Z,98492.59
2023-02-12T05:29:09.372Z,98499.75
2023-02-12T05:31:37.592Z,98497.28
2023-02-12T05:34:07.867Z,98493.53
2023-02-12T05:36:35.947Z,98491.75
2023-02-12T05:39:04.488Z,98500.88
2023-02-12T05:41:35.246Z,98504.88
2023-02-12T05:44:07.029Z,98506.94
2023-02-12T05:46:35.219Z,98502.53
2023-02-12T05:49:03.360Z,98508.47
2023-02-12T05:51:32.174Z,98503.78
2023-02-12T05:54:03.816Z,98509.97
2023-02-12T05:56:34.142Z,98511.09
2023-02-12T05:59:07.091Z,98513.28
2023-02-12T06:01:37.942Z,98511.50
2023-02-12T06:04:09.664Z,98504.75
2023-02-12T06:06:37.823Z,98503.25
2023-02-12T06:09:05.937Z,98502.13
2023-02-12T06:11:34.122Z,98499.38
2023-02-12T06:14:05.377Z,98497.41
2023-02-12T06:16:35.145Z,98503.06
2023-02-12T06:19:06.076Z,98506.94
2023-02-12T06:21:35.202Z,98505.38
2023-02-12T06:24:03.556Z,98500.84
2023-02-12T06:26:31.992Z,98504.13
2023-02-12T06:29:00.070Z,98501.13
2023-02-12T06:31:33.277Z,98501.97
2023-02-12T06:34:04.134Z,98511.31
2023-02-12T06:36:32.328Z,98508.84
2023-02-12T06:39:02.589Z,98514.97
2023-02-12T06:41:30.904Z,98521.31
2023-02-12T06:43:59.617Z,98523.50
2023-02-12T06:46:29.244Z,98518.75
2023-02-12T06:48:59.836Z,98518.50
2023-02-12T06:51:31.341Z,98517.63
2023-02-12T06:53:59.927Z,98528.56
2023-02-12T06:56:28.574Z,98536.06
2023-02-12T06:58:59.536Z,98522.53
2023-02-12T07:01:31.585Z,98539.78
2023-02-12T07:04:03.245Z,98530.78
2023-02-12T07:06:34.627Z,98533.09
2023-02-12T07:09:03.559Z,98538.03
2023-02-12T07:11:37.624Z,98533.31
2023-02-12T07:14:06.908Z,98532.63
2023-02-12T07:16:36.472Z,98528.84
2023-02-12T07:19:04.660Z,98531.34
2023-02-12T07:21:32.887Z,98533.16
2023-02-12T07:24:01.124Z,98537.16
2023-02-12T07:26:29.356Z,98536.44
2023-02-12T07:28:59.397Z,98521.59
2023-02-12T07:31:27.733Z,98530.66
2023-02-12T07:33:58.950Z,98528.03
2023-02-12T07:36:28.875Z,98535.00
2023-02-12T07:38:58.288Z,98535.72
2023-02-12T07:41:29.316Z,98529.78
2023-02-12T07:43:59.936Z,98535.59
2023-02-12T07:46:30.815Z,98541.69
2023-02-12T07:49:04.273Z,98545.09
2023-02-12T07:51:34.020Z,98534.41
2023-02-12T07:54:02.476Z,98533.66
2023-02-12T07:56:35.233Z,98538.00
2023-02-12T07:59:05.788Z,98544.97
2023-02-12T08:01:36.078Z,98535.88
2023-02-12T08:04:09.470Z,98537.16
2023-02-12T08:06:40.147Z,98539.41
2023-02-12T08:09:11.164Z,98543.66
2023-02-12T08:11:42.784Z,98541.59
2023-02-12T08:14:13.798Z,98536.81
2023-02-12T08:16:44.371Z,98527.31
2023-02-12T08:19:19.778Z,98530.59
2023-02-12T08:21:51.683Z,98528.81
2023-02-12T08:24:21.949Z,98527.13
2023-02-12T08:26:50.482Z,98536.69
2023-02-12T08:29:21.985Z,98519.28
2023-02-12T08:31:55.748Z,98517.84
2023-02-12T08:34:27.282Z,98519.53
2023-02-12T08:36:57.297Z,98521.19
2023-02-12T08:39:28.236Z,98527.63
2023-02-12T08:41:57.696Z,98531.75
2023-02-12T08:44:26.153Z,98527.63
2023-02-12T08:46:55.624Z,98533.03
2023-02-12T08:49:27.644Z,98534.00
2023-02-12T08:51:58.478Z,98543.13
2023-02-12T08:54:29.065Z,98536.69
2023-02-12T08:56:59.097Z,98539.22
2023-02-12T08:59:27.522Z,98540.34
2023-02-12T09:01:55.970Z,98537.38
2023-02-12T09:04:29.487Z,98543.19
2023-02-12T09:06:58.571Z,98540.00
2023-02-12T09:09:27.370Z,98537.09
2023-02-12T09:11:55.471Z,98538.28
2023-02-12T09:14:24.811Z,98542.06
2023-02-12T09:16:54.480Z,98540.88
2023-02-12T09:19:22.797Z,98545.19
2023-02-12T09:21:56.315Z,98543.59
2023-02-12T09:24:27.442Z,98546.66
2023-02-12T09:26:55.777Z,98550.50
2023-02-12T09:29:25.025Z,98545.09
2023-02-12T09:31:53.277Z,98545.81
2023-02-12T09:34:22.593Z,98549.91
2023-02-12T09:36:50.710Z,98550.00
2023-02-12T09:39:20.267Z,98553.28
2023-02-12T09:42:08.031Z,98561.53
2023-02-12T09:44:44.286Z,98558.75
2023-02-12T09:47:18.341Z,98559.50
2023-02-12T09:50:04.297Z,98556.72
2023-02-12T09:52:32.601Z,98557.00
2023-02-12T09:55:02.649Z,98556.72
2023-02-12T09:57:35.738Z,98561.00
2023-02-12T10:00:08.842Z,98553.97
2023-02-12T10:02:38.693Z,98552.41
2023-02-12T10:05:15.623Z,98549.22
2023-02-12T10:08:04.288Z,98550.00
2023-02-12T10:10:49.554Z,98550.09
2023-02-12T10:13:30.269Z,98550.47
2023-02-12T10:16:08.138Z,98551.44
2023-02-12T10:19:07.195Z,98547.84
2023-02-12T10:21:48.786Z,98555.50
2023-02-12T10:24:50.006Z,98543.13
2023-02-12T10:27:41.070Z,98541.28
2023-02-12T10:30:20.763Z,98541.34
2023-02-12T10:32:55.816Z,98547.50
2023-02-12T10:35:24.828Z,98547.22
2023-02-12T10:37:59.651Z,98540.84
2023-02-12T10:40:32.836Z,98538.47
2023-02-12T10:43:03.635Z,98536.63
2023-02-12T10:45:34.998Z,98540.44
2023-02-12T10:48:10.167Z,98536.88
2023-02-12T10:50:58.516Z,98527.47
2023-02-12T10:53:32.811Z,98523.50
2023-02-12T10:56:17.309Z,98526.81
2023-02-12T10:58:59.447Z,98534.69
2023-02-12T11:01:30.453Z,98531.38
2023-02-12T11:04:01.110Z,98527.78
2023-02-12T11:06:32.978Z,98527.66
2023-02-12T11:09:01.159Z,98521.84
2023-02-12T11:11:31.712Z,98517.88
2023-02-12T11:14:05.481Z,98515.41
2023-02-12T11:16:37.722Z,98522.56
2023-02-12T11:19:09.337Z,98518.47
2023-02-12T11:21:37.671Z,98517.81
2023-02-12T11:24:31.932Z,98522.72
2023-02-12T11:27:24.912Z,98519.03
2023-02-12T11:30:21.948Z,98515.78
2023-02-12T11:32:51.673Z,98511.59
2023-02-12T11:35:25.844Z,98514.06
2023-02-12T11:37:57.765Z,98511.88
2023-02-12T11:40:29.522Z,98508.13
2023-02-12T11:43:07.038Z,98506.03
2023-02-12T11:45:46.354Z,98496.91
2023-02-12T11:48:20.928Z,98502.09
2023-02-12T11:50:54.017Z,98501.66
2023-02-12T11:53:26.723Z,98502.53
2023-02-12T11:55:59.796Z,98510.47
2023-02-12T11:58:34.007Z,98505.63
2023-02-12T12:01:26.537Z,98506.97
2023-02-12T12:04:01.757Z,98499.47
2023-02-12T12:06:38.889Z,98509.72
2023-02-12T12:09:17.049Z,98507.38
2023-02-12T12:11:57.200Z,98504.31
2023-02-12T12:14:31.559Z,98497.06
2023-02-12T12:17:25.731Z,98495.56
2023-02-12T12:20:00.568Z,98495.38
2023-02-12T12:22:48.788Z,98495.31
2023-02-12T12:25:27.310Z,98493.84
2023-02-12T12:28:13.356Z,98486.53
2023-02-12T12:31:04.273Z,98488.34
2023-02-12T12:33:45.101Z,98485.66
2023-02-12T12:36:52.793Z,98492.00
2023-02-12T12:39:29.961Z,98487.59
2023-02-12T12:42:48.170Z,98486.72
2023-02-12T12:45:32.603Z,98481.53
2023-02-12T12:48:18.952Z,98479.22
2023-02-12T12:51:09.272Z,98477.88
2023-02-12T12:53:55.771Z,98472.25
2023-02-12T12:56:59.611Z,98471.84
2023-02-12T13:00:04.026Z,98453.38
2023-02-12T13:03:21.479Z,98455.69
2023-02-12T13:06:26.136Z,98456.31
2023-02-12T13:09:25.822Z,98448.47
2023-02-12T13:12:23.752Z,98449.34
2023-02-12T13:15:09.096Z,98449.34
2023-02-12T13:17:46.138Z,98447.88
2023-02-12T13:20:24.068Z,98444.88
2023-02-12T13:23:00.669Z,98438.00
2023-02-12T13:25:36.628Z,98441.31
2023-02-12T13:28:07.005Z,98441.34
2023-02-12T13:30:44.316Z,98438.00
2023-02-12T13:33:21.535Z,98439.84
2023-02-12T13:35:54.822Z,98430.97
2023-02-12T13:38:32.079Z,98437.03
2023-02-12T13:41:04.706Z,98439.03
2023-02-12T13:43:46.857Z,98425.44
2023-02-12T13:46:25.364Z,98427.53
2023-02-12T13:49:06.482Z,98427.53
2023-02-12T13:51:45.973Z,98431.16
2023-02-12T13:54:50.184Z,98425.56
2023-02-12T13:57:21.074Z,98420.63
2023-02-12T13:59:53.698Z,98425.09
2023-02-12T14:02:50.412Z,98413.78
2023-02-12T14:05:31.986Z,98414.09
2023-02-12T14:08:05.439Z,98412.59
2023-02-12T14:10:38.952Z,98417.88
2023-02-12T14:13:20.505Z,98410.97
2023-02-12T14:15:52.329Z,98411.84
2023-02-12T14:18:31.662Z,98410.19
2023-02-12T14:21:45.528Z,98397.56
2023-02-12T14:24:53.605Z,98400.81
2023-02-12T14:27:36.262Z,98392.94
2023-02-12T14:30:27.613Z,98400.09
2023-02-12T14:33:11.626Z,98384.53
2023-02-12T14:35:41.541Z,98382.69
2023-02-12T14:39:02.432Z,98389.81
2023-02-12T14:41:44.395Z,98385.53
2023-02-12T14:44:49.027Z,98384.22
2023-02-12T14:47:56.040Z,98389.47
2023-02-12T14:50:31.498Z,98386.19
2023-02-12T14:53:24.583Z,98388.81
2023-02-12T14:55:53.162Z,98384.88
2023-02-12T14:58:25.421Z,98382.56
2023-02-12T15:00:57.462Z,98383.25
2023-02-12T15:03:35.705Z,98380.25
2023-02-12T15:06:11.143Z,98385.72
2023-02-12T15:08:46.854Z,98380.25
2023-02-12T15:11:25.647Z,98383.88
2023-02-12T15:14:00.983Z,98383.72
2023-02-12T15:16:43.049Z,98384.56
2023-02-12T15:19:32.481Z,98387.47
2023-02-12T15:22:01.122Z,98382.53
2023-02-12T15:24:29.541Z,98386.50
2023-02-12T15:27:01.048Z,98374.34
2023-02-12T15:29:33.110Z,98373.19
2023-02-12T15:32:07.460Z,98378.63
2023-02-12T15:34:39.000Z,98371.41
2023-02-12T15:37:09.419Z,98376.31
2023-02-12T15:39:44.411Z,98371.72
2023-02-12T15:42:32.215Z,98369.72
2023-02-12T15:45:22.117Z,98373.03
2023-02-12T15:48:08.348Z,98372.00
2023-02-12T15:50:38.154Z,98362.16
2023-02-12T15:53:06.333Z,98366.91
2023-02-12T15:55:40.850Z,98366.56
2023-02-12T15:58:24.477Z,98367.56
2023-02-12T16:00:54.068Z,98373.97
2023-02-12T16:03:26.746Z,98374.63
2023-02-12T16:06:00.168Z,98375.47
2023-02-12T16:08:30.137Z,98372.13
2023-02-12T16:10:59.700Z,98368.03
2023-02-12T16:13:34.275Z,98365.88
2023-02-12T16:16:09.505Z,98373.75
2023-02-12T16:18:40.248Z,98362.59
2023-02-12T16:21:15.911Z,98369.28
2023-02-12T16:23:45.101Z,98369.94
2023-02-12T16:26:19.696Z,98365.69
2023-02-12T16:28:49.611Z,98369.28
2023-02-12T16:31:19.303Z,98378.94
2023-02-12T16:33:53.267Z,98380.25
2023-02-12T16:36:32.204Z,98376.66
2023-02-12T16:39:03.249Z,98376.31
2023-02-12T16:41:33.746Z,98379.59
2023-02-12T16:44:31.630Z,98381.69
2023-02-12T16:47:02.765Z,98380.69
2023-02-12T16:49:32.467Z,98382.03
2023-02-12T16:52:22.818Z,98382.53
2023-02-12T16:54:50.985Z,98391.88
2023-02-12T16:57:19.115Z,98393.50
2023-02-12T16:59:47.210Z,98386.78
2023-02-12T17:02:16.657Z,98395.75
2023-02-12T17:04:46.446Z,98395.81
2023-02-12T17:07:21.682Z,98398.44
2023-02-12T17:09:49.925Z,98399.53
2023-02-12T17:12:18.421Z,98408.56
2023-02-12T17:14:47.260Z,98411.16
2023-02-12T17:17:15.393Z,98420.81
2023-02-12T17:19:43.608Z,98413.03
2023-02-12T17:22:21.982Z,98419.28
2023-02-12T17:24:51.672Z,98413.19
2023-02-12T17:27:19.966Z,98422.47
2023-02-12T17:29:48.229Z,98419.38
2023-02-12T17:32:16.443Z,98426.59
2023-02-12T17:34:48.936Z,98424.28
2023-02-12T17:37:19.080Z,98425.56
2023-02-12T17:39:47.579Z,98428.00
2023-02-12T17:42:15.813Z,98432.66
2023-02-12T17:44:44.026Z,98422.06
2023-02-12T17:47:12.354Z,98427.25
2023-02-12T17:49:40.766Z,98428.38
2023-02-12T17:52:08.885Z,98430.19
2023-02-12T17:54:39.258Z,98428.25
2023-02-12T17:57:07.347Z,98426.88
2023-02-12T17:59:35.508Z,98425.38
2023-02-12T18:02:03.769Z,98429.88
2023-02-12T18:04:33.962Z,98436.09
2023-02-12T18:07:02.277Z,98431.44
2023-02-12T18:09:31.920Z,98435.50
2023-02-12T18:12:01.475Z,98440.44
2023-02-12T18:14:29.615Z,98440.00
2023-02-12T18:16:57.790Z,98450.66
2023-02-12T18:19:26.890Z,98448.53
2023-02-12T18:21:55.120Z,98447.94
2023-02-12T18:24:23.272Z,98440.41
2023-02-12T18:26:53.305Z,98436.59
2023-02-12T18:29:22.697Z,98438.47
2023-02-12T18:31:51.340Z,98435.59
2023-02-12T18:34:19.943Z,98426.56
2023-02-12T18:36:48.153Z,98426.44
2023-02-12T18:39:16.353Z,98424.94
2023-02-12T18:41:44.435Z,98428.50
2023-02-12T18:44:13.413Z,98422.75
2023-02-12T18:46:43.152Z,98428.25
2023-02-12T18:49:12.437Z,98426.56
2023-02-12T18:51:41.089Z,98433.47
2023-02-12T18:54:12.802Z,98440.34
2023-02-12T18:56:43.868Z,98433.47
2023-02-12T18:59:15.483Z,98432.34
2023-02-12T19:01:47.164Z,98442.28
2023-02-12T19:04:20.447Z,98440.94
2023-02-12T19:06:50.801Z,98443.84
2023-02-12T19:09:21.850Z,98443.47
2023-02-12T19:11:52.828Z,98439.34
2023-02-12T19:14:22.876Z,98447.75
2023-02-12T19:16:53.467Z,98445.84
2023-02-12T19:19:22.455Z,98449.31
2023-02-12T19:21:51.339Z,98444.41
2023-02-12T19:24:20.341Z,98441.94
2023-02-12T19:26:52.689Z,98444.25
2023-02-12T19:29:20.856Z,98443.88
2023-02-12T19:31:49.381Z,98438.75
2023-02-12T19:34:23.335Z,98444.75
2023-02-12T19:36:51.695Z,98446.66
2023-02-12T19:39:23.211Z,98441.84
2023-02-12T19:41:51.920Z,98446.19
2023-02-12T19:44:23.655Z,98447.59
2023-02-12T19:46:52.658Z,98441.16
2023-02-12T19:49:24.604Z,98456.97
2023-02-12T19:51:52.804Z,98453.13
2023-02-12T19:54:22.866Z,98454.72
2023-02-12T19:56:51.798Z,98460.91
2023-02-12T19:59:24.750Z,98454.03
2023-02-12T20:01:53.528Z,98454.38
2023-02-12T20:04:24.496Z,98453.28
2023-02-12T20:06:53.243Z,98457.69
2023-02-12T20:09:23.587Z,98452.31
2023-02-12T20:11:52.196Z,98457.41
2023-02-12T20:14:22.569Z,98451.88
2023-02-12T20:16:52.218Z,98455.47
2023-02-12T20:19:24.337Z,98453.00
2023-02-12T20:21:55.389Z,98450.38
2023-02-12T20:24:24.317Z,98459.47
2023-02-12T20:26:52.869Z,98459.63
2023-02-12T20:29:21.598Z,98469.81
2023-02-12T20:31:50.098Z,98465.13
2023-02-12T20:34:20.927Z,98472.31
2023-02-12T20:36:50.759Z,98457.28
2023-02-12T20:39:21.618Z,98461.00
2023-02-12T20:41:50.215Z,98467.88
2023-02-12T20:44:22.236Z,98462.38
2023-02-12T20:46:56.427Z,98467.28
2023-02-12T20:49:26.192Z,98463.44
2023-02-12T20:51:56.270Z,98465.41
2023-02-12T20:54:25.840Z,98473.81
2023-02-12T20:56:53.955Z,98465.81
2023-02-12T20:59:22.014Z,98463.88
2023-02-12T21:01:50.302Z,98464.44
2023-02-12T21:04:20.440Z,98461.00
2023-02-12T21:06:49.725Z,98463.59
2023-02-12T21:09:19.875Z,98465.81
2023-02-12T21:11:48.899Z,98466.63
2023-02-12T21:14:23.705Z,98463.19
2023-02-12T21:16:53.459Z,98462.09
2023-02-12T21:19:22.235Z,98463.19
2023-02-12T21:21:54.005Z,98462.91
2023-02-12T21:24:25.856Z,98461.13
2023-02-12T21:26:56.171Z,98465.09
2023-02-12T21:29:26.534Z,98462.50
2023-02-12T21:31:55.127Z,98459.97
2023-02-12T21:34:24.669Z,98457.47
2023-02-12T21:36:55.355Z,98453.34
2023-02-12T21:39:28.832Z,98461.91
2023-02-12T21:42:00.007Z,98450.97
2023-02-12T21:44:29.131Z,98457.78
2023-02-12T21:46:58.658Z,98447.59
2023-02-12T21:49:27.770Z,98451.19
2023-02-12T21:51:59.239Z,98443.91
2023-02-12T21:54:29.542Z,98450.09
2023-02-12T21:56:58.241Z,98447.59
2023-02-12T21:59:26.922Z,98443.06
2023-02-12T22:01:58.337Z,98441.16
2023-02-12T22:04:27.170Z,98442.13
2023-02-12T22:06:56.547Z,98440.53
2023-02-12T22:09:25.439Z,98445.13
2023-02-12T22:11:54.986Z,98445.13
2023-02-12T22:14:23.649Z,98444.88
2023-02-12T22:16:52.483Z,98452.16
2023-02-12T22:19:21.046Z,98453.13
2023-02-12T22:21:52.485Z,98453.38
2023-02-12T22:24:21.358Z,98449.97
2023-02-12T22:26:49.629Z,98450.59
2023-02-12T22:29:19.243Z,98451.66
2023-02-12T22:31:48.300Z,98450.38
2023-02-12T22:34:19.315Z,98447.47
2023-02-12T22:36:48.460Z,98442.00
2023-02-12T22:39:17.630Z,98453.09
2023-02-12T22:41:46.114Z,98444.63
2023-02-12T22:44:15.458Z,98445.97
2023-02-12T22:46:45.771Z,98447.06
2023-02-12T22:49:13.918Z,98450.81
2023-02-12T22:51:42.150Z,98453.94
2023-02-12T22:54:15.098Z,98452.91
2023-02-12T22:56:44.207Z,98464.22
2023-02-12T22:59:14.790Z,98458.44
2023-02-12T23:01:44.712Z,98446.38
2023-02-12T23:04:17.196Z,98465.56
2023-02-12T23:06:45.955Z,98468.28
2023-02-12T23:09:19.038Z,98465.97
2023-02-12T23:11:48.021Z,98462.88
2023-02-12T23:14:16.139Z,98460.69
2023-02-12T23:16:46.456Z,98459.66
2023-02-12T23:19:16.156Z,98458.81
2023-02-12T23:21:44.489Z,98464.88
2023-02-12T23:24:15.190Z,98456.50
2023-02-12T23:26:43.540Z,98456.75
2023-02-12T23:29:11.602Z,98457.44
2023-02-12T23:31:39.728Z,98452.75
2023-02-12T23:34:09.202Z,98451.47
2023-02-12T23:36:37.250Z,98452.09
2023-02-12T23:39:09.442Z,98456.22
2023-02-12T23:41:37.574Z,98448.66
2023-02-12T23:44:06.006Z,98450.81
2023-02-12T23:46:34.127Z,98452.34
2023-02-12T23:49:02.613Z,98450.31
2023-02-12T23:51:32.527Z,98445.69
2023-02-12T23:54:01.068Z,98450.44
2023-02-12T23:56:31.799Z,98449.75
2023-02-12T23:58:59.798Z,98449.88
